Elk Mountain, WY

5:02 AM MDT on April 29, 2017 (GMT -0600)
MMBRW4 | | Change Station

Elev 7996 ft 41.55 °N, 106.41 °W | Updated 1 hour ago

Overcast
Overcast
21.0 °F
Feels Like 21.0 °F
N
-
Wind Variable Wind from North

Today
High -- | Low -- °F
--% Chance of Precip.
Yesterday
High -- | Low -- °F
Precip. -- in
Pressure 30.04 in
Visibility 10.0 miles
Clouds Scattered Clouds 800 ft
Overcast 1400 ft
Dew Point Not available.
Humidity Not available.
Rainfall in
Snow Depth Not available.
6:04 AM 8:01 PM
Waxing Crescent, 13% visible
METAR KEHY 291055Z AUTO 08017G20KT 10SM SCT008 OVC014 M04/M06 A3004 RMK AO2
Pressure 30.04 in
Visibility 10.0 miles
Clouds Scattered Clouds 800 ft
Overcast 1400 ft
Dew Point Not available.
Humidity Not available.
Rainfall in
Snow Depth Not available.
6:04 AM 8:01 PM
Waxing Crescent, 13% visible
METAR KEHY 291055Z AUTO 08017G20KT 10SM SCT008 OVC014 M04/M06 A3004 RMK AO2

Get Severe Weather Alerts

Thanks for signing up!

Be on the lookout for a verification email in your inbox.

You'll start receiving the daily forecast at 8 AM.

×

10-Day Weather Forecast

Almanac

Astronomy

Apr. 29, 2017 Rise Set
Actual Time
Civil Twilight
Nautical Twilight
Astronomical Twilight
Moon
Length of Visible Light
Length of Day
Tomorrow will be .
, % of the Moon is Illuminated

Today's Extremes

State Highs State Lows

Community

WunderPhotos

WunderBlog® & News

Nearby

Air Quality

  Air Quality AQ Index Pollutant
Not available.

Snow Depth

Station Depth Elevation

Earthquake Activity

City Distance Mag. Time & Date
Minimum magnitude displayed is 2.5.

Coastal Water Temperatures

Place Temperature

Stations

Nearby Weather Stations

Station Location Temp. Windchill Dew Point Humidity Wind Precip. Elev Updated Type
                   

Watches & Warnings

There are currently no watches in effect.